Time;durP1;ratioP1;P1;durP2;ratioP2;P2;SDS_P1;SDS_P2;PMS_P1;PMS_P2;Temp;Humidity;BMP_temperature;BMP_pressure;BME280_temperature;BME280_humidity;BME280_pressure;Samples;Min_cycle;Max_cycle;Signal;HPM_P1;HPM_P2
2021/12/11 00:01:58;;;;;;;1.60;0.75;;;4.20;99.90;;;;;;4981150;28;20216;-80
2021/12/11 00:04:32;;;;;;;0.52;0.50;;;3.90;99.90;;;;;;4982051;28;20206;-81
2021/12/11 00:07:05;;;;;;;1.02;0.70;;;3.90;99.90;;;;;;4983518;28;20736;-80
2021/12/11 00:09:38;;;;;;;0.63;0.50;;;4.00;99.90;;;;;;4979280;28;20679;-81
2021/12/11 00:12:12;;;;;;;0.65;0.65;;;4.00;99.90;;;;;;4981879;28;20295;-80
2021/12/11 00:14:44;;;;;;;0.63;0.60;;;4.20;1.00;;;;;;4977063;28;20636;-82
2021/12/11 00:17:12;;;;;;;0.50;0.50;;;4.20;99.90;;;;;;4980271;28;20206;-81
2021/12/11 00:19:41;;;;;;;0.98;0.63;;;4.30;1.00;;;;;;4981269;28;20221;-81
2021/12/11 00:22:13;;;;;;;0.45;0.45;;;3.90;99.90;;;;;;4982450;28;20651;-82
2021/12/11 00:24:42;;;;;;;0.70;0.65;;;4.00;99.90;;;;;;4975295;28;20264;-83
2021/12/11 00:27:14;;;;;;;0.70;0.70;;;4.00;95.40;;;;;;4982829;28;20212;-82
2021/12/11 00:29:42;;;;;;;0.60;0.60;;;4.00;38.80;;;;;;4980070;28;20224;-82
2021/12/11 00:32:14;;;;;;;0.50;0.50;;;3.90;99.90;;;;;;4978868;28;20289;-81
2021/12/11 00:34:45;;;;;;;0.60;0.60;;;4.00;99.90;;;;;;4981012;28;20307;-82
2021/12/11 00:37:15;;;;;;;0.50;0.50;;;4.10;1.00;;;;;;4980816;28;20201;-82
2021/12/11 00:39:47;;;;;;;0.50;0.50;;;4.40;1.00;;;;;;4979885;28;20229;-82
2021/12/11 00:42:20;;;;;;;1.20;0.57;;;4.10;99.90;;;;;;4983578;28;20229;-81
2021/12/11 00:44:51;;;;;;;0.50;0.50;;;4.30;99.90;;;;;;4980388;28;20694;-82
2021/12/11 00:47:22;;;;;;;1.15;0.50;;;4.40;1.00;;;;;;4981186;28;20203;-83
2021/12/11 00:49:54;;;;;;;0.43;0.43;;;4.40;99.90;;;;;;4976932;28;20229;-82
2021/12/11 00:52:31;;;;;;;0.50;0.50;;;4.60;99.90;;;;;;4982932;28;20589;-81
2021/12/11 00:55:00;;;;;;;0.40;0.40;;;4.50;99.90;;;;;;4980992;28;20210;-82
2021/12/11 00:57:30;;;;;;;0.50;0.50;;;4.30;1.00;;;;;;4979620;28;20207;-82
2021/12/11 01:00:05;;;;;;;0.88;0.50;;;4.50;1.00;;;;;;4984347;28;20724;-83
2021/12/11 01:02:33;;;;;;;0.50;0.50;;;4.80;99.90;;;;;;4966249;28;20207;-82
2021/12/11 01:05:04;;;;;;;0.50;0.50;;;4.60;1.00;;;;;;4986195;28;20204;-82
2021/12/11 01:07:33;;;;;;;0.60;0.60;;;4.60;1.00;;;;;;4968589;28;20213;-82
2021/12/11 01:10:09;;;;;;;0.40;0.40;;;4.60;99.90;;;;;;4982884;28;20231;-83
2021/12/11 01:12:46;;;;;;;0.50;0.50;;;4.60;99.90;;;;;;4986623;28;20212;-82
2021/12/11 01:15:19;;;;;;;0.47;0.47;;;4.50;1.00;;;;;;4981788;28;20546;-81
2021/12/11 01:18:01;;;;;;;0.40;0.40;;;4.60;27.30;;;;;;4984381;28;20220;-82
2021/12/11 01:20:35;;;;;;;0.40;0.40;;;4.30;1.00;;;;;;4983512;28;20205;-81
2021/12/11 01:23:16;;;;;;;0.50;0.45;;;4.30;86.60;;;;;;4984340;28;20633;-81
2021/12/11 01:25:47;;;;;;;0.95;0.47;;;4.30;99.90;;;;;;4986149;28;20681;-82
2021/12/11 01:28:17;;;;;;;0.50;0.50;;;4.20;1.00;;;;;;4983940;28;20255;-81
2021/12/11 01:30:46;;;;;;;0.57;0.52;;;4.10;99.90;;;;;;4977380;28;20221;-81
2021/12/11 01:33:15;;;;;;;0.60;0.60;;;4.50;1.00;;;;;;4985992;28;20213;-82
2021/12/11 01:35:43;;;;;;;1.27;0.60;;;4.30;1.00;;;;;;4984314;28;20233;-82
2021/12/11 01:38:15;;;;;;;1.17;0.60;;;4.00;1.00;;;;;;4983168;28;20704;-83
2021/12/11 01:40:45;;;;;;;2.88;0.50;;;4.30;99.90;;;;;;4984444;28;20198;-83
2021/12/11 01:43:16;;;;;;;1.60;0.60;;;4.60;99.90;;;;;;4983495;28;20207;-83
2021/12/11 01:45:47;;;;;;;0.50;0.50;;;4.40;99.90;;;;;;4981222;28;20212;-83
2021/12/11 01:48:17;;;;;;;0.50;0.50;;;4.40;99.90;;;;;;4982654;28;20759;-84
2021/12/11 01:50:50;;;;;;;0.50;0.50;;;4.50;99.90;;;;;;4984909;28;20275;-84
2021/12/11 01:53:22;;;;;;;0.40;0.40;;;4.50;1.00;;;;;;4984089;28;20205;-84
2021/12/11 01:55:55;;;;;;;0.50;0.50;;;4.60;99.90;;;;;;4981677;28;20220;-84
2021/12/11 01:58:28;;;;;;;0.43;0.43;;;4.60;1.00;;;;;;4983312;28;20226;-83
2021/12/11 02:01:02;;;;;;;0.63;0.40;;;4.70;1.00;;;;;;4983687;28;20288;-82
2021/12/11 02:03:33;;;;;;;0.50;0.50;;;4.60;99.90;;;;;;4981818;28;20685;-82
2021/12/11 02:06:01;;;;;;;0.50;0.50;;;4.90;1.00;;;;;;4985853;28;20210;-84
2021/12/11 02:08:33;;;;;;;0.40;0.40;;;4.70;99.90;;;;;;4984098;28;20281;-82
2021/12/11 02:11:05;;;;;;;0.40;0.40;;;4.70;99.90;;;;;;4983586;28;20229;-81
2021/12/11 02:13:40;;;;;;;0.50;0.50;;;5.00;99.90;;;;;;4983428;28;20578;-82
2021/12/11 02:16:19;;;;;;;0.65;0.52;;;4.80;1.00;;;;;;4975285;28;20212;-82
2021/12/11 02:18:49;;;;;;;0.60;0.40;;;4.80;99.90;;;;;;4978016;28;20231;-83
2021/12/11 02:21:23;;;;;;;0.40;0.40;;;4.90;99.90;;;;;;4983980;28;20753;-82
2021/12/11 02:23:58;;;;;;;0.55;0.55;;;4.90;99.90;;;;;;4984498;28;20215;-84
2021/12/11 02:26:28;;;;;;;0.43;0.43;;;5.00;27.50;;;;;;4981247;28;20194;-83
2021/12/11 02:29:00;;;;;;;0.40;0.40;;;5.20;99.90;;;;;;4982435;28;20305;-84
2021/12/11 02:31:33;;;;;;;0.50;0.50;;;5.30;1.00;;;;;;4982921;28;20305;-82
2021/12/11 02:34:08;;;;;;;0.40;0.40;;;5.40;1.00;;;;;;4983489;28;20655;-83
2021/12/11 02:36:41;;;;;;;0.50;0.50;;;5.50;1.00;;;;;;4977722;28;20201;-84
2021/12/11 02:39:19;;;;;;;0.55;0.55;;;5.60;99.90;;;;;;4982698;28;20219;-83
2021/12/11 02:41:52;;;;;;;0.40;0.40;;;5.60;99.90;;;;;;4982578;28;20248;-83
2021/12/11 02:44:37;;;;;;;0.40;0.40;;;5.80;1.00;;;;;;4984143;28;20203;-84
2021/12/11 02:47:09;;;;;;;0.57;0.50;;;5.80;1.00;;;;;;4980857;28;20536;-84
2021/12/11 02:49:44;;;;;;;0.60;0.50;;;5.90;1.00;;;;;;4983600;28;20322;-84
2021/12/11 02:52:22;;;;;;;0.60;0.50;;;6.10;1.00;;;;;;4984906;28;20582;-82
2021/12/11 02:54:58;;;;;;;0.50;0.50;;;5.90;1.00;;;;;;4982874;28;20202;-84
2021/12/11 02:57:32;;;;;;;0.40;0.40;;;5.90;99.90;;;;;;4984425;28;20257;-81
2021/12/11 03:00:11;;;;;;;0.55;0.55;;;5.50;99.90;;;;;;4983327;28;20374;-83
2021/12/11 03:02:44;;;;;;;0.50;0.50;;;5.90;99.90;;;;;;4979155;28;20202;-82
2021/12/11 03:05:16;;;;;;;0.50;0.50;;;5.80;99.90;;;;;;4983894;28;20458;-82
2021/12/11 03:07:50;;;;;;;0.40;0.40;;;6.00;99.90;;;;;;4981755;28;20549;-82
2021/12/11 03:10:23;;;;;;;0.65;0.65;;;5.80;99.90;;;;;;4981684;28;20713;-83
2021/12/11 03:12:54;;;;;;;0.50;0.50;;;5.80;88.50;;;;;;4983896;28;20223;-84
2021/12/11 03:15:23;;;;;;;0.50;0.50;;;5.80;29.90;;;;;;4982471;28;20211;-82
2021/12/11 03:17:51;;;;;;;0.47;0.47;;;5.80;37.70;;;;;;4967583;28;20213;-83
2021/12/11 03:20:23;;;;;;;0.50;0.50;;;5.80;36.50;;;;;;4979032;28;20207;-83
2021/12/11 03:22:51;;;;;;;0.40;0.40;;;5.80;23.90;;;;;;4982873;28;20203;-84
2021/12/11 03:25:27;;;;;;;0.40;0.40;;;5.80;1.00;;;;;;4982222;28;20200;-83
2021/12/11 03:27:56;;;;;;;0.50;0.50;;;5.70;1.00;;;;;;4983025;28;20214;-84
2021/12/11 03:30:26;;;;;;;0.50;0.50;;;5.90;1.00;;;;;;4980849;28;20222;-83
2021/12/11 03:32:58;;;;;;;1.67;1.58;;;5.70;1.00;;;;;;4978829;28;20242;-83
2021/12/11 03:35:27;;;;;;;0.60;0.60;;;5.70;1.00;;;;;;4962761;28;20202;-83
2021/12/11 03:37:55;;;;;;;0.80;0.80;;;5.70;1.00;;;;;;4983285;28;20207;-83
2021/12/11 03:40:27;;;;;;;0.70;0.70;;;5.70;1.00;;;;;;4979918;28;20199;-83
2021/12/11 03:42:57;;;;;;;0.70;0.70;;;5.60;1.00;;;;;;4971817;28;20689;-84
2021/12/11 03:45:30;;;;;;;0.70;0.70;;;5.60;1.00;;;;;;4980932;28;20206;-83
2021/12/11 03:48:02;;;;;;;0.90;0.80;;;5.70;1.00;;;;;;4982670;28;20214;-84
2021/12/11 03:50:31;;;;;;;0.95;0.90;;;5.60;1.00;;;;;;4982093;28;20210;-83
2021/12/11 03:53:00;;;;;;;0.93;0.70;;;5.70;1.00;;;;;;4986361;28;20273;-84
2021/12/11 03:55:33;;;;;;;0.77;0.77;;;5.70;1.00;;;;;;4982926;28;20206;-83
2021/12/11 03:58:02;;;;;;;0.70;0.70;;;5.70;1.00;;;;;;4981474;28;20206;-83
2021/12/11 04:00:35;;;;;;;0.93;0.85;;;5.70;1.00;;;;;;4983053;28;20206;-82
2021/12/11 04:03:07;;;;;;;1.00;0.90;;;5.90;1.00;;;;;;4981143;28;20221;-82
2021/12/11 04:05:38;;;;;;;3.47;0.90;;;5.70;1.00;;;;;;4980107;28;20693;-84
2021/12/11 04:08:09;;;;;;;0.98;0.80;;;5.80;1.00;;;;;;4982354;28;20211;-84
2021/12/11 04:10:38;;;;;;;0.70;0.70;;;5.70;1.00;;;;;;4982514;28;20211;-83
2021/12/11 04:13:10;;;;;;;0.60;0.60;;;5.70;1.00;;;;;;4964521;28;20572;-83
2021/12/11 04:15:41;;;;;;;2.08;1.00;;;5.70;1.00;;;;;;4982876;28;20578;-83
2021/12/11 04:18:09;;;;;;;0.90;0.90;;;5.70;1.00;;;;;;4980831;28;20286;-83
2021/12/11 04:20:41;;;;;;;0.90;0.90;;;5.70;1.00;;;;;;4981983;28;20214;-83
2021/12/11 04:23:12;;;;;;;0.82;0.82;;;5.60;1.00;;;;;;4982765;28;20744;-82
2021/12/11 04:25:44;;;;;;;0.68;0.68;;;5.70;1.00;;;;;;4981106;28;20570;-83
2021/12/11 04:28:16;;;;;;;0.70;0.70;;;5.70;1.00;;;;;;4963527;28;20231;-83
2021/12/11 04:30:45;;;;;;;0.80;0.80;;;5.90;1.00;;;;;;4980775;28;20234;-81
2021/12/11 04:33:13;;;;;;;0.90;0.90;;;6.00;1.00;;;;;;4981383;28;20502;-84
2021/12/11 04:35:43;;;;;;;1.10;1.00;;;5.70;1.00;;;;;;4979469;28;20211;-83
2021/12/11 04:38:13;;;;;;;1.10;0.93;;;5.70;1.00;;;;;;4981279;28;20613;-81
2021/12/11 04:40:48;;;;;;;1.00;1.00;;;5.90;1.00;;;;;;4981725;28;20663;-83
2021/12/11 04:43:20;;;;;;;0.90;0.80;;;6.00;1.00;;;;;;4982451;28;20195;-81
2021/12/11 04:45:53;;;;;;;1.00;1.00;;;5.70;1.00;;;;;;4981822;28;20462;-83
2021/12/11 04:48:33;;;;;;;1.15;1.05;;;5.70;1.00;;;;;;4981142;28;20227;-85
2021/12/11 04:51:11;;;;;;;1.02;1.02;;;6.00;1.00;;;;;;4980770;28;20232;-82
2021/12/11 04:53:53;;;;;;;0.93;0.90;;;5.80;1.00;;;;;;4976520;28;20234;-84
2021/12/11 05:02:14;;;;;;;0.90;0.90;;;5.50;1.00;;;;;;4981469;28;20209;-82
2021/12/11 05:04:55;;;;;;;1.55;1.45;;;5.60;1.00;;;;;;4979626;28;20470;-82
2021/12/11 05:07:31;;;;;;;0.98;0.88;;;5.60;1.00;;;;;;4963242;28;20202;-83
2021/12/11 05:10:11;;;;;;;1.20;1.10;;;5.70;1.00;;;;;;4982428;28;20283;-82
2021/12/11 05:12:42;;;;;;;1.40;1.30;;;5.70;1.00;;;;;;4982743;28;20230;-83
2021/12/11 05:15:15;;;;;;;1.13;1.13;;;6.00;1.00;;;;;;4979327;28;20307;-81
2021/12/11 05:17:44;;;;;;;1.30;1.20;;;5.70;1.00;;;;;;4981257;28;20420;-79
2021/12/11 05:20:15;;;;;;;1.40;1.30;;;5.80;1.00;;;;;;4977911;28;20740;-78
2021/12/11 05:22:44;;;;;;;1.20;1.10;;;5.80;1.00;;;;;;4979546;28;20215;-81
2021/12/11 05:25:13;;;;;;;1.20;1.10;;;5.70;1.00;;;;;;4979958;28;20199;-81
2021/12/11 05:27:44;;;;;;;1.30;1.20;;;5.80;1.00;;;;;;4981496;28;20222;-81
2021/12/11 05:30:17;;;;;;;1.30;1.30;;;5.80;1.00;;;;;;4974653;28;20210;-81
2021/12/11 05:32:46;;;;;;;1.23;1.13;;;5.80;1.00;;;;;;4979488;28;20484;-80
2021/12/11 05:35:15;;;;;;;1.23;1.13;;;5.90;1.00;;;;;;4979344;28;20633;-80
2021/12/11 05:37:44;;;;;;;1.20;1.10;;;5.80;1.00;;;;;;4975479;28;20592;-81
2021/12/11 05:40:18;;;;;;;0.90;0.90;;;5.80;1.00;;;;;;4982692;28;20219;-80
2021/12/11 05:42:48;;;;;;;0.90;0.90;;;5.80;1.00;;;;;;4982206;28;20305;-82
2021/12/11 05:45:17;;;;;;;0.93;0.93;;;5.80;1.00;;;;;;4985523;28;20574;-81
2021/12/11 05:47:46;;;;;;;2.13;1.10;;;5.70;1.00;;;;;;4986860;28;20211;-81
2021/12/11 05:50:18;;;;;;;1.52;1.20;;;5.70;1.00;;;;;;4987458;28;20227;-83
2021/12/11 05:52:48;;;;;;;1.40;1.30;;;5.70;1.00;;;;;;4987782;28;20229;-83
2021/12/11 05:55:19;;;;;;;1.30;1.20;;;5.60;1.00;;;;;;4983793;28;22226;-82
2021/12/11 05:57:53;;;;;;;1.27;1.17;;;5.60;1.00;;;;;;4981056;28;20204;-82
2021/12/11 06:00:28;;;;;;;1.30;1.20;;;5.80;1.00;;;;;;4982477;28;20211;-82
2021/12/11 06:02:59;;;;;;;1.92;1.08;;;5.60;1.00;;;;;;4983925;28;20198;-82
2021/12/11 06:05:28;;;;;;;1.10;1.00;;;5.70;1.00;;;;;;4984450;28;20294;-82
2021/12/11 06:07:57;;;;;;;1.60;1.40;;;5.70;1.00;;;;;;4985153;28;20619;-82
2021/12/11 06:10:27;;;;;;;1.25;1.20;;;5.70;1.00;;;;;;4985244;28;20285;-82
2021/12/11 06:12:59;;;;;;;1.00;0.90;;;5.60;1.00;;;;;;4983286;28;20326;-81
2021/12/11 06:15:28;;;;;;;1.25;1.15;;;5.80;1.00;;;;;;4984786;28;20262;-81
2021/12/11 06:17:57;;;;;;;1.50;1.40;;;5.60;1.00;;;;;;4983807;28;20218;-83
2021/12/11 06:20:28;;;;;;;1.40;1.30;;;5.60;1.00;;;;;;4983700;28;20210;-83
2021/12/11 06:23:03;;;;;;;1.20;1.10;;;5.70;1.00;;;;;;4985239;28;20471;-81
2021/12/11 06:25:33;;;;;;;1.15;1.05;;;5.70;1.00;;;;;;4984891;28;20207;-81
2021/12/11 06:28:04;;;;;;;1.42;1.30;;;5.60;1.00;;;;;;4984479;28;20222;-81
2021/12/11 06:30:33;;;;;;;1.85;1.05;;;5.60;20.50;;;;;;4983020;28;20698;-81
2021/12/11 06:33:01;;;;;;;1.27;1.00;;;5.60;43.10;;;;;;4984543;28;20565;-82
2021/12/11 06:35:33;;;;;;;1.55;1.45;;;5.60;54.00;;;;;;4983417;28;20211;-83
2021/12/11 06:38:02;;;;;;;1.97;1.30;;;5.60;76.20;;;;;;4984576;28;21029;-82
2021/12/11 06:40:30;;;;;;;1.70;1.10;;;5.70;30.40;;;;;;4994254;28;20468;-82
2021/12/11 06:42:59;;;;;;;1.48;1.38;;;5.70;32.70;;;;;;4985150;28;20767;-82
2021/12/11 06:45:29;;;;;;;1.20;1.10;;;5.70;51.60;;;;;;4984583;28;20211;-84
2021/12/11 06:47:58;;;;;;;1.15;1.10;;;5.70;51.30;;;;;;4984608;28;20229;-82
2021/12/11 06:50:26;;;;;;;2.28;1.63;;;5.70;64.30;;;;;;4979866;28;20303;-82
2021/12/11 06:52:55;;;;;;;1.48;1.27;;;5.90;23.80;;;;;;4962593;28;20627;-84
2021/12/11 06:55:24;;;;;;;1.50;1.40;;;5.70;1.00;;;;;;4980082;28;20207;-82
2021/12/11 06:57:52;;;;;;;1.50;1.40;;;5.70;1.00;;;;;;4976773;28;20602;-81
2021/12/11 07:00:22;;;;;;;1.40;1.30;;;5.60;16.80;;;;;;4983414;28;20468;-82
2021/12/11 07:02:51;;;;;;;1.80;1.67;;;5.70;35.10;;;;;;4964655;28;20832;-84
2021/12/11 07:05:19;;;;;;;2.15;1.55;;;5.70;19.00;;;;;;4984173;28;20662;-81
2021/12/11 07:07:48;;;;;;;1.45;1.35;;;6.00;1.00;;;;;;4983945;28;20226;-82
2021/12/11 07:10:19;;;;;;;1.80;1.58;;;5.70;12.70;;;;;;4982952;28;20211;-83
2021/12/11 07:12:49;;;;;;;1.35;1.10;;;5.60;17.70;;;;;;4985937;28;20394;-81
2021/12/11 07:15:18;;;;;;;1.55;1.45;;;5.70;17.20;;;;;;4984739;28;20225;-82
2021/12/11 07:17:47;;;;;;;2.60;1.42;;;5.60;1.00;;;;;;4977304;28;20520;-81
2021/12/11 07:20:17;;;;;;;1.73;1.40;;;5.50;17.30;;;;;;4976420;28;20198;-82
2021/12/11 07:22:45;;;;;;;1.75;1.30;;;5.60;52.00;;;;;;4973890;28;20210;-82
2021/12/11 07:25:18;;;;;;;1.58;1.48;;;5.60;36.90;;;;;;4983582;28;20222;-81
2021/12/11 07:27:48;;;;;;;1.67;1.57;;;5.60;40.50;;;;;;4979886;28;20210;-81
2021/12/11 07:30:16;;;;;;;1.50;1.40;;;5.60;41.20;;;;;;4979946;28;20465;-81
2021/12/11 07:32:44;;;;;;;1.85;1.60;;;5.70;99.90;;;;;;4974674;28;20207;-81
2021/12/11 07:35:14;;;;;;;2.10;1.70;;;5.70;99.90;;;;;;4976742;28;20469;-80
2021/12/11 07:37:49;;;;;;;1.83;1.73;;;5.70;95.20;;;;;;4964354;28;20683;-80
2021/12/11 07:40:20;;;;;;;2.13;1.60;;;5.80;17.40;;;;;;4976284;28;20221;-79
2021/12/11 07:42:48;;;;;;;2.42;1.90;;;5.80;1.00;;;;;;4981304;28;20630;-81
2021/12/11 07:45:17;;;;;;;2.28;2.10;;;5.80;1.00;;;;;;4970600;28;20204;-83
2021/12/11 07:47:45;;;;;;;1.98;1.88;;;5.80;1.00;;;;;;4978000;28;20199;-80
2021/12/11 07:50:14;;;;;;;2.30;1.60;;;6.00;1.00;;;;;;4975105;28;20690;-81
2021/12/11 07:52:43;;;;;;;2.72;1.98;;;5.80;1.00;;;;;;4982210;28;20481;-80
2021/12/11 07:55:12;;;;;;;2.05;1.90;;;5.80;1.00;;;;;;4979560;28;20222;-79
2021/12/11 07:57:40;;;;;;;2.00;1.77;;;5.80;1.00;;;;;;4981197;28;20217;-81
2021/12/11 08:00:12;;;;;;;3.42;2.58;;;5.80;1.00;;;;;;4981545;28;20793;-80
2021/12/11 08:02:40;;;;;;;2.20;2.00;;;5.80;1.00;;;;;;4979713;28;20211;-81
2021/12/11 08:05:11;;;;;;;2.13;2.03;;;5.80;1.00;;;;;;4980851;28;20594;-78
2021/12/11 08:07:39;;;;;;;2.30;2.10;;;5.80;1.00;;;;;;4983648;28;20207;-79
2021/12/11 08:10:13;;;;;;;2.40;2.22;;;5.70;1.00;;;;;;4977349;28;20265;-80
2021/12/11 08:12:42;;;;;;;4.35;2.40;;;5.70;1.00;;;;;;4980746;28;20207;-81
2021/12/11 08:15:12;;;;;;;4.70;3.25;;;5.70;1.00;;;;;;4977468;28;20234;-81
2021/12/11 08:17:41;;;;;;;4.05;3.30;;;5.80;1.00;;;;;;4973630;28;20742;-79
2021/12/11 08:20:12;;;;;;;4.85;3.47;;;5.80;1.00;;;;;;4978147;28;20230;-81
2021/12/11 08:22:41;;;;;;;4.03;2.97;;;5.70;1.00;;;;;;4964599;28;20207;-81
2021/12/11 08:25:11;;;;;;;4.20;3.05;;;5.80;1.00;;;;;;4978681;28;20218;-80
2021/12/11 08:27:40;;;;;;;3.38;3.08;;;5.80;1.00;;;;;;4980647;28;20214;-79
2021/12/11 08:30:09;;;;;;;2.72;2.53;;;5.90;1.00;;;;;;4984868;28;20219;-81
2021/12/11 08:32:38;;;;;;;3.45;3.15;;;5.80;1.00;;;;;;4977950;28;20223;-81
2021/12/11 08:35:10;;;;;;;6.35;3.50;;;5.90;1.00;;;;;;4976744;28;20230;-79
2021/12/11 08:37:41;;;;;;;6.25;3.55;;;5.90;1.00;;;;;;4977119;28;20380;-79
2021/12/11 08:40:15;;;;;;;3.67;3.17;;;5.90;1.00;;;;;;4981823;28;20625;-82
2021/12/11 08:42:43;;;;;;;5.93;4.28;;;5.90;1.00;;;;;;4980238;28;20210;-81
2021/12/11 08:45:20;;;;;;;4.45;3.92;;;5.90;1.00;;;;;;4980101;28;20191;-79
2021/12/11 08:47:52;;;;;;;4.28;3.88;;;5.90;1.00;;;;;;4981370;28;20201;-81
2021/12/11 08:50:23;;;;;;;4.88;4.30;;;5.90;1.00;;;;;;4978559;28;20470;-84
2021/12/11 08:52:53;;;;;;;3.67;3.10;;;5.90;1.00;;;;;;4979229;28;20774;-84
2021/12/11 08:55:30;;;;;;;4.10;3.45;;;5.90;1.00;;;;;;4981961;28;20223;-81
2021/12/11 08:57:58;;;;;;;3.90;3.53;;;5.90;1.00;;;;;;4980835;28;20229;-80
2021/12/11 09:00:32;;;;;;;4.57;4.18;;;6.00;1.00;;;;;;4976897;28;20207;-81
2021/12/11 09:03:04;;;;;;;5.35;3.97;;;6.00;1.00;;;;;;4980393;28;20217;-82
2021/12/11 09:05:40;;;;;;;5.18;4.57;;;6.00;1.00;;;;;;4978499;28;20221;-81
2021/12/11 09:08:12;;;;;;;3.30;2.60;;;6.00;1.00;;;;;;4978392;28;20261;-83
2021/12/11 09:10:47;;;;;;;4.47;3.67;;;6.40;1.00;;;;;;4981043;28;20205;-81
2021/12/11 09:13:19;;;;;;;4.07;3.20;;;6.10;1.00;;;;;;4979647;28;20213;-81
2021/12/11 09:15:52;;;;;;;5.17;4.13;;;6.10;1.00;;;;;;4974216;28;20478;-81
2021/12/11 09:18:25;;;;;;;5.97;4.50;;;6.20;1.00;;;;;;4978648;28;20489;-82
2021/12/11 09:20:58;;;;;;;5.43;3.97;;;6.20;1.00;;;;;;4978848;28;20461;-78
2021/12/11 09:23:32;;;;;;;3.97;3.53;;;6.20;1.00;;;;;;4979954;28;20458;-81
2021/12/11 09:26:06;;;;;;;4.40;3.80;;;6.20;1.00;;;;;;4983918;28;20444;-80
2021/12/11 09:28:41;;;;;;;4.20;3.30;;;6.30;1.00;;;;;;4981748;28;20226;-80
2021/12/11 09:31:15;;;;;;;5.50;3.60;;;6.20;1.00;;;;;;4981707;28;21023;-81
2021/12/11 09:33:48;;;;;;;4.73;3.73;;;6.20;1.00;;;;;;4984136;28;20458;-80
2021/12/11 09:36:20;;;;;;;5.37;3.47;;;6.20;1.00;;;;;;4982285;28;20474;-78
2021/12/11 09:38:58;;;;;;;4.87;3.70;;;6.20;1.00;;;;;;4978171;28;20473;-80
2021/12/11 09:41:26;;;;;;;4.53;3.23;;;6.20;1.00;;;;;;4983447;28;20474;-81
2021/12/11 09:44:00;;;;;;;5.63;3.50;;;6.30;1.00;;;;;;4982329;28;20442;-78
2021/12/11 09:46:31;;;;;;;5.30;4.50;;;6.30;1.00;;;;;;4977993;28;20457;-81
2021/12/11 09:49:00;;;;;;;4.87;4.20;;;6.30;1.00;;;;;;4980535;28;20538;-83
2021/12/11 09:51:34;;;;;;;5.60;3.97;;;6.30;1.00;;;;;;4981598;28;20505;-81
2021/12/11 09:54:08;;;;;;;4.53;3.83;;;6.20;1.00;;;;;;4975145;28;20461;-81
2021/12/11 09:56:39;;;;;;;5.97;3.93;;;6.20;1.00;;;;;;4982297;28;20484;-83
2021/12/11 09:59:12;;;;;;;3.50;3.20;;;6.10;1.00;;;;;;4981993;28;20896;-80
2021/12/11 10:01:44;;;;;;;4.00;3.40;;;6.20;1.00;;;;;;4980177;28;20465;-80
2021/12/11 10:04:17;;;;;;;3.27;2.80;;;6.20;1.00;;;;;;4979115;28;20960;-82
2021/12/11 10:07:13;;;;;;;4.70;3.30;;;6.20;1.00;;;;;;4979665;28;20873;-81
2021/12/11 10:09:46;;;;;;;3.97;3.57;;;6.20;1.00;;;;;;4979063;28;20522;-81
2021/12/11 10:12:17;;;;;;;4.80;3.28;;;6.30;1.00;;;;;;4976547;28;20482;-81
2021/12/11 10:14:50;;;;;;;4.10;3.50;;;6.30;1.00;;;;;;4983632;28;20412;-79
2021/12/11 10:17:21;;;;;;;4.40;4.00;;;6.30;1.00;;;;;;4976355;28;20508;-80
2021/12/11 10:19:53;;;;;;;5.00;3.10;;;6.20;1.00;;;;;;4980430;28;20744;-79
2021/12/11 10:22:25;;;;;;;4.23;3.80;;;6.30;1.00;;;;;;4978721;28;20489;-79
2021/12/11 10:24:54;;;;;;;7.10;4.13;;;6.60;1.00;;;;;;4981730;28;20453;-80
2021/12/11 10:27:27;;;;;;;4.80;3.45;;;6.40;1.00;;;;;;4984871;28;20466;-77
2021/12/11 10:29:59;;;;;;;5.87;4.10;;;6.60;1.00;;;;;;4981874;28;20219;-78
2021/12/11 10:32:31;;;;;;;3.70;2.93;;;6.40;1.00;;;;;;4977599;28;20482;-80
2021/12/11 10:35:04;;;;;;;3.30;2.57;;;6.40;1.00;;;;;;4982173;28;20455;-78
2021/12/11 10:37:36;;;;;;;3.27;2.97;;;6.40;1.00;;;;;;4982719;28;20458;-79
2021/12/11 10:40:12;;;;;;;3.93;3.30;;;6.50;1.00;;;;;;4983904;28;21164;-79
2021/12/11 10:42:43;;;;;;;3.63;2.67;;;6.40;1.00;;;;;;4966418;28;20465;-79
2021/12/11 10:45:15;;;;;;;4.40;3.00;;;6.50;1.00;;;;;;4981910;28;20203;-76
2021/12/11 10:47:48;;;;;;;2.88;2.65;;;6.70;1.00;;;;;;4981092;28;20269;-80
2021/12/11 10:50:32;;;;;;;6.10;3.47;;;6.40;1.00;;;;;;4982216;28;20206;-78
2021/12/11 10:53:07;;;;;;;4.40;3.40;;;6.80;1.00;;;;;;4981368;28;20447;-79
2021/12/11 10:55:36;;;;;;;3.53;3.17;;;6.50;1.00;;;;;;4983226;28;20478;-80
2021/12/11 10:58:10;;;;;;;3.13;2.58;;;6.60;1.00;;;;;;4980595;28;20992;-80
2021/12/11 11:00:45;;;;;;;3.97;3.50;;;6.70;1.00;;;;;;4982003;28;20313;-79
2021/12/11 11:03:15;;;;;;;3.50;2.83;;;6.50;1.00;;;;;;4981609;28;20548;-81
2021/12/11 11:05:44;;;;;;;4.30;2.80;;;6.50;1.00;;;;;;4979814;28;20450;-80
2021/12/11 11:08:13;;;;;;;3.63;3.10;;;6.50;1.00;;;;;;4980993;28;20474;-79
2021/12/11 11:10:45;;;;;;;3.73;2.93;;;6.40;1.00;;;;;;4983194;28;20459;-80
2021/12/11 11:13:16;;;;;;;4.63;2.93;;;6.50;1.00;;;;;;4983310;28;20446;-79
2021/12/11 11:15:46;;;;;;;2.93;2.43;;;6.40;1.00;;;;;;4980226;28;20474;-80
2021/12/11 11:18:17;;;;;;;4.27;3.10;;;6.50;1.00;;;;;;4979088;28;20474;-80
2021/12/11 11:20:49;;;;;;;4.03;3.30;;;6.50;1.00;;;;;;4982054;28;20447;-80
2021/12/11 11:23:17;;;;;;;4.33;3.27;;;6.50;1.00;;;;;;4982259;28;20462;-77
2021/12/11 11:25:50;;;;;;;3.73;3.10;;;6.50;1.00;;;;;;4982465;28;20446;-78
2021/12/11 11:28:23;;;;;;;3.43;3.13;;;6.60;1.00;;;;;;4982604;28;20482;-80
2021/12/11 11:30:57;;;;;;;4.73;2.83;;;6.40;1.00;;;;;;4961913;28;20909;-79
2021/12/11 11:33:28;;;;;;;5.80;3.70;;;6.40;1.00;;;;;;4982123;28;20462;-79
2021/12/11 11:35:58;;;;;;;4.60;3.07;;;6.50;1.00;;;;;;4980732;28;20470;-81
2021/12/11 11:38:30;;;;;;;4.80;3.25;;;6.50;1.00;;;;;;4980281;28;20470;-80
2021/12/11 11:41:05;;;;;;;3.95;2.85;;;6.50;1.00;;;;;;4980375;28;20211;-80
2021/12/11 11:43:33;;;;;;;3.17;2.90;;;6.50;1.00;;;;;;4975619;28;20210;-79
2021/12/11 11:46:03;;;;;;;4.63;3.23;;;6.50;99.90;;;;;;4980314;28;20470;-80
2021/12/11 11:48:35;;;;;;;3.53;3.22;;;6.40;1.00;;;;;;4981804;28;20490;-80
2021/12/11 11:51:13;;;;;;;5.43;3.10;;;6.40;99.90;;;;;;4982040;28;20678;-80
2021/12/11 11:53:42;;;;;;;3.47;3.17;;;6.40;1.00;;;;;;4980681;28;20472;-80
2021/12/11 11:56:15;;;;;;;4.93;2.90;;;6.40;1.00;;;;;;4981668;28;21008;-82
2021/12/11 11:58:43;;;;;;;5.28;3.30;;;6.40;99.90;;;;;;4982224;28;20484;-79
2021/12/11 12:01:16;;;;;;;3.80;2.23;;;6.50;99.90;;;;;;4982082;28;20218;-80
2021/12/11 12:03:46;;;;;;;2.10;1.90;;;6.50;99.90;;;;;;4982809;28;20488;-80
2021/12/11 12:06:22;;;;;;;2.90;2.38;;;6.50;99.90;;;;;;4978933;28;20445;-78
2021/12/11 12:08:51;;;;;;;2.50;2.30;;;6.60;99.90;;;;;;4980139;28;20991;-80
2021/12/11 12:11:20;;;;;;;5.53;2.77;;;6.60;99.90;;;;;;4983936;28;20584;-81
2021/12/11 12:13:49;;;;;;;2.87;1.77;;;6.70;99.90;;;;;;4962341;28;20462;-81
2021/12/11 12:16:30;;;;;;;2.50;2.30;;;6.60;99.90;;;;;;4975983;28;20474;-79
2021/12/11 12:18:59;;;;;;;3.10;2.17;;;6.60;99.90;;;;;;4979295;28;20477;-78
2021/12/11 12:21:29;;;;;;;2.83;2.60;;;6.50;99.90;;;;;;4974973;28;20455;-80
2021/12/11 12:23:58;;;;;;;3.20;2.87;;;6.50;99.90;;;;;;4978522;28;20551;-79
2021/12/11 12:26:29;;;;;;;2.67;2.33;;;6.80;99.90;;;;;;4975431;28;20463;-80
2021/12/11 12:28:58;;;;;;;3.43;2.40;;;6.50;99.90;;;;;;4980593;28;20478;-80
2021/12/11 12:31:32;;;;;;;2.20;2.00;;;6.60;99.90;;;;;;4980236;28;20457;-79
2021/12/11 12:34:01;;;;;;;1.90;1.80;;;6.50;99.90;;;;;;4979017;28;20458;-79
2021/12/11 12:36:30;;;;;;;2.60;1.77;;;6.60;99.90;;;;;;4981129;28;20516;-80
2021/12/11 12:38:59;;;;;;;3.23;2.17;;;6.40;99.90;;;;;;4979525;28;20478;-79
2021/12/11 12:41:31;;;;;;;2.50;1.93;;;6.50;99.90;;;;;;4979492;28;20473;-80
2021/12/11 12:44:20;;;;;;;2.50;2.30;;;6.50;99.90;;;;;;4979456;28;20442;-79
2021/12/11 12:47:05;;;;;;;2.33;2.03;;;6.60;99.90;;;;;;4978632;28;20738;-80
2021/12/11 12:49:36;;;;;;;1.90;1.67;;;6.60;99.90;;;;;;4979733;28;20482;-80
2021/12/11 12:52:10;;;;;;;3.67;2.63;;;6.50;99.90;;;;;;4978319;28;20489;-80
2021/12/11 12:54:39;;;;;;;1.80;1.70;;;6.60;99.90;;;;;;4982066;28;20450;-79
2021/12/11 12:57:14;;;;;;;3.30;2.27;;;6.60;99.90;;;;;;4983255;28;20501;-77
2021/12/11 12:59:47;;;;;;;3.40;2.50;;;6.70;99.90;;;;;;4984704;28;20493;-79
2021/12/11 13:02:19;;;;;;;2.60;1.80;;;6.60;99.90;;;;;;4978487;28;21096;-79
2021/12/11 13:04:51;;;;;;;6.33;4.40;;;6.60;99.90;;;;;;4981035;28;20826;-80
2021/12/11 13:07:19;;;;;;;5.17;3.37;;;6.60;99.90;;;;;;4980184;28;20509;-78
2021/12/11 13:09:50;;;;;;;4.55;2.50;;;6.60;99.90;;;;;;4981543;28;20504;-76
2021/12/11 13:12:24;;;;;;;4.43;3.10;;;6.70;99.90;;;;;;4983267;28;20286;-78
2021/12/11 13:14:53;;;;;;;3.23;2.40;;;6.70;99.90;;;;;;4982109;28;20458;-76
2021/12/11 13:17:25;;;;;;;2.40;1.67;;;6.70;99.90;;;;;;4979925;28;20478;-77
2021/12/11 13:19:57;;;;;;;4.13;3.03;;;6.80;99.90;;;;;;4981558;28;20584;-78
2021/12/11 13:22:30;;;;;;;3.73;2.63;;;6.70;99.90;;;;;;4981677;28;20811;-78
2021/12/11 13:25:03;;;;;;;2.40;2.20;;;6.70;99.90;;;;;;4970824;28;20991;-78
2021/12/11 13:27:32;;;;;;;2.70;1.77;;;6.70;99.90;;;;;;4980706;28;20461;-78
2021/12/11 13:30:05;;;;;;;1.93;1.73;;;6.80;99.90;;;;;;4982531;28;20482;-77
2021/12/11 13:32:35;;;;;;;3.65;3.05;;;6.60;99.90;;;;;;4971985;28;20919;-77